Ruble, Iowa
Current Conditions -  °F | °C
As of 6:15 AM on Sunday 21 Dec 2014 (Local Time) from KLRJ Reporting Station
Haze Haze  
Wind Chill: 28°   Ceiling: 300
Heat Index: 36°   Visibility: 1.5mi
Dew Point: 36°   Wind: 12mph
Humidity: 100%   Direction: 180°S
Pressure: 29.84"   Gusts: NA
Location:  42.8596°N, 96.4482°W
Report Text: KLRJ 211215Z AUTO 18010KT 1 1/2SM BR OVC003 02/02 A2984 RMK AO2
Loading
Personal Weather Stations






























Interactive Weather Map New forecast layout! Learn more

10-Day Weather Forecast

Advertisements
Track Severe Weather on mobile